Moroni/Prince Said Ibrahim International Airport

Airport
ICAO code: 
FMCH
IATA Code: 
HAH
Summary
ICAO Region: 
AFI
Territory: 
Location: 
Hahaya, Comoros
Serving: 
Moroni
Elevation: 
93 ft
Coordinates: 
Aerial View: 
11° 42' 41.676" S, 43° 14' 36.186" E
Metar
Observation
FMCH 211000Z VRB02KT 9999 FEW020TCU SCT025 BKN070 27/24 Q1010 NOSIG
Station
Hahaya International Airport
Date/Time
2022-01-21 10:00:00
Wind speed
02 kts
Lowest cloud amount
few clouds
Temperature
27°C
Dew point
24°C
Humidity
83%
QNH
1010 hPa
Weather condition
n/a

Prince Said Ibrahim International Airport is an international airport located in Moroni, Comoros.

Runways

Designator Length Width Surface Rops
2/20 2900 45 ASP Yes/Yes
Airport map: 
Aerial View: 

Accidents and Serious Incidents at or in the vicinity of FMCH

SKYbrary Partners:

Safety knowledge contributed by: